sensor_id;sensor_type;location;lat;lon;timestamp;pressure;altitude;pressure_sealevel;temperature;humidity
55486;BME280;71262;-25.924;28.194;2024-03-02T00:02:02;85276.57;;;26.24;34.67
55486;BME280;71262;-25.924;28.194;2024-03-02T00:04:27;85280.22;;;26.24;34.67
55486;BME280;71262;-25.924;28.194;2024-03-02T00:06:52;85278.31;;;26.23;34.66
55486;BME280;71262;-25.924;28.194;2024-03-02T00:09:18;85270.89;;;26.22;34.66
55486;BME280;71262;-25.924;28.194;2024-03-02T00:11:44;85271.62;;;26.23;34.66
55486;BME280;71262;-25.924;28.194;2024-03-02T00:14:10;85267.72;;;25.95;34.67
55486;BME280;71262;-25.924;28.194;2024-03-02T00:16:35;85264.72;;;26.21;34.67
55486;BME280;71262;-25.924;28.194;2024-03-02T00:19:03;85261.13;;;25.93;34.67
55486;BME280;71262;-25.924;28.194;2024-03-02T00:21:28;85257.07;;;25.71;34.67
55486;BME280;71262;-25.924;28.194;2024-03-02T00:23:54;85254.53;;;26.19;34.67
55486;BME280;71262;-25.924;28.194;2024-03-02T00:26:18;85254.31;;;26.19;34.67
55486;BME280;71262;-25.924;28.194;2024-03-02T00:28:43;85253.18;;;26.18;34.67
55486;BME280;71262;-25.924;28.194;2024-03-02T00:31:10;85254.90;;;26.18;34.67
55486;BME280;71262;-25.924;28.194;2024-03-02T00:33:35;85256.19;;;26.17;34.67
55486;BME280;71262;-25.924;28.194;2024-03-02T00:36:00;85258.55;;;25.68;34.67
55486;BME280;71262;-25.924;28.194;2024-03-02T00:38:25;85258.29;;;25.68;34.67
55486;BME280;71262;-25.924;28.194;2024-03-02T00:40:50;85260.83;;;25.90;34.66
55486;BME280;71262;-25.924;28.194;2024-03-02T00:45:42;85262.76;;;26.17;34.65
55486;BME280;71262;-25.924;28.194;2024-03-02T00:48:09;85261.02;;;26.16;34.65
55486;BME280;71262;-25.924;28.194;2024-03-02T00:50:32;85259.72;;;26.15;34.66
55486;BME280;71262;-25.924;28.194;2024-03-02T00:52:58;85258.85;;;25.87;34.66
55486;BME280;71262;-25.924;28.194;2024-03-02T00:55:23;85255.92;;;26.13;34.66
55486;BME280;71262;-25.924;28.194;2024-03-02T00:57:49;85254.93;;;25.64;34.66
55486;BME280;71262;-25.924;28.194;2024-03-02T01:00:16;85255.77;;;25.86;34.66
55486;BME280;71262;-25.924;28.194;2024-03-02T01:02:40;85253.79;;;25.85;34.66
55486;BME280;71262;-25.924;28.194;2024-03-02T01:05:06;85250.01;;;26.12;34.65
55486;BME280;71262;-25.924;28.194;2024-03-02T01:07:31;85247.94;;;26.11;34.66
55486;BME280;71262;-25.924;28.194;2024-03-02T01:09:56;85247.58;;;26.11;34.65
55486;BME280;71262;-25.924;28.194;2024-03-02T01:12:22;85246.06;;;26.11;34.65
55486;BME280;71262;-25.924;28.194;2024-03-02T01:14:48;85246.00;;;26.10;34.64
55486;BME280;71262;-25.924;28.194;2024-03-02T01:17:13;85247.81;;;26.10;34.64
55486;BME280;71262;-25.924;28.194;2024-03-02T01:19:39;85246.81;;;26.10;34.64
55486;BME280;71262;-25.924;28.194;2024-03-02T01:22:05;85245.16;;;25.60;34.64
55486;BME280;71262;-25.924;28.194;2024-03-02T01:24:30;85243.14;;;26.08;34.64
55486;BME280;71262;-25.924;28.194;2024-03-02T01:26:56;85241.24;;;26.07;34.64
55486;BME280;71262;-25.924;28.194;2024-03-02T01:29:22;85240.84;;;25.81;34.63
55486;BME280;71262;-25.924;28.194;2024-03-02T01:31:48;85240.26;;;26.07;34.64
55486;BME280;71262;-25.924;28.194;2024-03-02T01:34:13;85242.22;;;26.06;34.64
55486;BME280;71262;-25.924;28.194;2024-03-02T01:36:39;85244.02;;;26.06;34.63
55486;BME280;71262;-25.924;28.194;2024-03-02T01:39:04;85246.36;;;26.06;34.62
55486;BME280;71262;-25.924;28.194;2024-03-02T01:41:30;85248.86;;;25.56;34.63
55486;BME280;71262;-25.924;28.194;2024-03-02T01:43:56;85251.87;;;26.04;34.63
55486;BME280;71262;-25.924;28.194;2024-03-02T01:46:21;85257.22;;;26.04;34.62
55486;BME280;71262;-25.924;28.194;2024-03-02T01:48:47;85258.64;;;25.77;34.63
55486;BME280;71262;-25.924;28.194;2024-03-02T01:51:12;85262.55;;;25.76;34.63
55486;BME280;71262;-25.924;28.194;2024-03-02T01:53:38;85260.22;;;25.77;34.62
55486;BME280;71262;-25.924;28.194;2024-03-02T01:56:04;85259.53;;;25.77;34.62
55486;BME280;71262;-25.924;28.194;2024-03-02T01:58:29;85257.19;;;26.02;34.62
55486;BME280;71262;-25.924;28.194;2024-03-02T02:00:55;85258.05;;;26.02;34.62
55486;BME280;71262;-25.924;28.194;2024-03-02T02:03:21;85261.42;;;26.01;34.62
55486;BME280;71262;-25.924;28.194;2024-03-02T02:05:46;85264.07;;;25.74;34.61
55486;BME280;71262;-25.924;28.194;2024-03-02T02:08:12;85264.04;;;25.74;34.61
55486;BME280;71262;-25.924;28.194;2024-03-02T02:10:38;85262.91;;;26.01;34.61
55486;BME280;71262;-25.924;28.194;2024-03-02T02:13:03;85265.03;;;25.51;34.61
55486;BME280;71262;-25.924;28.194;2024-03-02T02:15:30;85271.11;;;25.99;34.61
55486;BME280;71262;-25.924;28.194;2024-03-02T02:17:55;85273.75;;;25.99;34.60
55486;BME280;71262;-25.924;28.194;2024-03-02T02:20:21;85272.43;;;25.99;34.60
55486;BME280;71262;-25.924;28.194;2024-03-02T02:22:55;85273.41;;;25.98;34.60
55486;BME280;71262;-25.924;28.194;2024-03-02T02:25:12;85276.48;;;25.99;34.58
55486;BME280;71262;-25.924;28.194;2024-03-02T02:27:38;85277.29;;;25.99;34.57
55486;BME280;71262;-25.924;28.194;2024-03-02T02:30:04;85276.56;;;25.97;34.57
55486;BME280;71262;-25.924;28.194;2024-03-02T02:32:29;85277.46;;;25.97;34.57
55486;BME280;71262;-25.924;28.194;2024-03-02T02:34:55;85281.85;;;25.97;34.57
55486;BME280;71262;-25.924;28.194;2024-03-02T02:37:20;85282.72;;;25.96;34.57
55486;BME280;71262;-25.924;28.194;2024-03-02T02:39:45;85279.92;;;25.95;34.57
55486;BME280;71262;-25.924;28.194;2024-03-02T02:42:11;85280.79;;;25.95;34.56
55486;BME280;71262;-25.924;28.194;2024-03-02T02:44:36;85280.35;;;25.94;34.56
55486;BME280;71262;-25.924;28.194;2024-03-02T02:47:02;85280.21;;;25.94;34.56
55486;BME280;71262;-25.924;28.194;2024-03-02T02:49:28;85279.58;;;25.94;34.55
55486;BME280;71262;-25.924;28.194;2024-03-02T02:51:54;85281.09;;;25.93;34.54
55486;BME280;71262;-25.924;28.194;2024-03-02T02:54:20;85280.72;;;25.92;34.54
55486;BME280;71262;-25.924;28.194;2024-03-02T02:56:46;85279.72;;;25.65;34.54
55486;BME280;71262;-25.924;28.194;2024-03-02T02:59:11;85281.29;;;25.91;34.53
55486;BME280;71262;-25.924;28.194;2024-03-02T03:01:37;85282.01;;;25.65;34.52
55486;BME280;71262;-25.924;28.194;2024-03-02T03:04:02;85279.51;;;25.91;34.52
55486;BME280;71262;-25.924;28.194;2024-03-02T03:06:28;85278.09;;;25.90;34.52
55486;BME280;71262;-25.924;28.194;2024-03-02T03:08:52;85281.41;;;25.90;34.51
55486;BME280;71262;-25.924;28.194;2024-03-02T03:11:18;85284.13;;;25.63;34.51
55486;BME280;71262;-25.924;28.194;2024-03-02T03:13:44;85282.98;;;25.89;34.51
55486;BME280;71262;-25.924;28.194;2024-03-02T03:16:09;85284.87;;;25.88;34.51
55486;BME280;71262;-25.924;28.194;2024-03-02T03:18:34;85286.66;;;25.88;34.50
55486;BME280;71262;-25.924;28.194;2024-03-02T03:21:00;85282.69;;;25.61;34.49
55486;BME280;71262;-25.924;28.194;2024-03-02T03:23:26;85283.98;;;25.60;34.50
55486;BME280;71262;-25.924;28.194;2024-03-02T03:25:52;85285.04;;;25.60;34.50
55486;BME280;71262;-25.924;28.194;2024-03-02T03:28:18;85287.30;;;25.87;34.49
55486;BME280;71262;-25.924;28.194;2024-03-02T03:30:43;85288.56;;;25.87;34.48
55486;BME280;71262;-25.924;28.194;2024-03-02T03:33:09;85286.78;;;25.86;34.49
55486;BME280;71262;-25.924;28.194;2024-03-02T03:35:35;85286.40;;;25.84;34.50
55486;BME280;71262;-25.924;28.194;2024-03-02T03:38:01;85286.36;;;25.84;34.50
55486;BME280;71262;-25.924;28.194;2024-03-02T03:40:26;85285.23;;;25.84;34.48
55486;BME280;71262;-25.924;28.194;2024-03-02T03:42:52;85285.12;;;25.83;34.46
55486;BME280;71262;-25.924;28.194;2024-03-02T03:45:18;85285.23;;;25.83;34.47
55486;BME280;71262;-25.924;28.194;2024-03-02T03:47:44;85287.25;;;25.83;34.47
55486;BME280;71262;-25.924;28.194;2024-03-02T03:50:10;85286.70;;;25.82;34.47
55486;BME280;71262;-25.924;28.194;2024-03-02T03:52:35;85291.27;;;25.81;34.47
55486;BME280;71262;-25.924;28.194;2024-03-02T03:55:01;85291.45;;;25.54;34.46
55486;BME280;71262;-25.924;28.194;2024-03-02T03:57:27;85292.25;;;25.80;34.46
55486;BME280;71262;-25.924;28.194;2024-03-02T03:59:52;85293.20;;;25.52;34.46
55486;BME280;71262;-25.924;28.194;2024-03-02T04:02:18;85293.91;;;25.79;34.46
55486;BME280;71262;-25.924;28.194;2024-03-02T04:04:44;85298.23;;;25.79;34.45
55486;BME280;71262;-25.924;28.194;2024-03-02T04:07:09;85301.46;;;25.78;34.46
55486;BME280;71262;-25.924;28.194;2024-03-02T04:09:35;85302.33;;;25.77;34.45
55486;BME280;71262;-25.924;28.194;2024-03-02T04:12:01;85301.58;;;25.77;34.45
55486;BME280;71262;-25.924;28.194;2024-03-02T04:14:27;85303.75;;;25.77;34.45
55486;BME280;71262;-25.924;28.194;2024-03-02T04:16:52;85305.91;;;25.77;34.43
55486;BME280;71262;-25.924;28.194;2024-03-02T04:19:18;85310.18;;;25.77;34.43
55486;BME280;71262;-25.924;28.194;2024-03-02T04:21:43;85313.17;;;25.76;34.43
55486;BME280;71262;-25.924;28.194;2024-03-02T04:24:09;85314.85;;;25.76;34.43
55486;BME280;71262;-25.924;28.194;2024-03-02T04:26:35;85316.56;;;25.97;34.44
55486;BME280;71262;-25.924;28.194;2024-03-02T04:29:01;85318.58;;;25.75;34.44
55486;BME280;71262;-25.924;28.194;2024-03-02T04:31:26;85324.46;;;25.75;34.44
55486;BME280;71262;-25.924;28.194;2024-03-02T04:33:51;85326.13;;;25.74;34.44
55486;BME280;71262;-25.924;28.194;2024-03-02T04:36:17;85330.85;;;25.74;34.43
55486;BME280;71262;-25.924;28.194;2024-03-02T04:38:42;85332.83;;;25.48;34.42
55486;BME280;71262;-25.924;28.194;2024-03-02T04:41:08;85335.39;;;25.75;34.42
55486;BME280;71262;-25.924;28.194;2024-03-02T04:43:34;85338.33;;;25.74;34.41
55486;BME280;71262;-25.924;28.194;2024-03-02T04:46:00;85338.80;;;25.75;34.39
55486;BME280;71262;-25.924;28.194;2024-03-02T04:48:25;85339.46;;;25.77;34.37
55486;BME280;71262;-25.924;28.194;2024-03-02T04:50:51;85343.91;;;25.82;34.35
55486;BME280;71262;-25.924;28.194;2024-03-02T04:53:16;85349.29;;;25.84;34.31
55486;BME280;71262;-25.924;28.194;2024-03-02T04:55:42;85349.39;;;25.84;34.31
55486;BME280;71262;-25.924;28.194;2024-03-02T04:58:08;85353.78;;;25.85;34.32
55486;BME280;71262;-25.924;28.194;2024-03-02T05:00:33;85359.86;;;25.85;34.34
55486;BME280;71262;-25.924;28.194;2024-03-02T05:02:59;85360.90;;;25.87;34.33
55486;BME280;71262;-25.924;28.194;2024-03-02T05:05:25;85361.85;;;25.62;34.33
55486;BME280;71262;-25.924;28.194;2024-03-02T05:07:50;85363.93;;;25.91;34.32
55486;BME280;71262;-25.924;28.194;2024-03-02T05:10:16;85360.54;;;25.94;34.31
55486;BME280;71262;-25.924;28.194;2024-03-02T05:12:43;85359.34;;;25.96;34.29
55486;BME280;71262;-25.924;28.194;2024-03-02T05:15:09;85361.21;;;25.99;34.27
55486;BME280;71262;-25.924;28.194;2024-03-02T05:17:34;85358.89;;;26.01;34.25
55486;BME280;71262;-25.924;28.194;2024-03-02T05:20:00;85354.69;;;25.54;34.23
55486;BME280;71262;-25.924;28.194;2024-03-02T05:22:25;85355.16;;;26.06;34.21
55486;BME280;71262;-25.924;28.194;2024-03-02T05:24:51;85363.95;;;25.82;34.19
55486;BME280;71262;-25.924;28.194;2024-03-02T05:27:17;85371.58;;;25.62;34.18
55486;BME280;71262;-25.924;28.194;2024-03-02T05:29:43;85370.25;;;26.14;34.15
55486;BME280;71262;-25.924;28.194;2024-03-02T05:32:08;85375.07;;;26.17;34.13
55486;BME280;71262;-25.924;28.194;2024-03-02T05:34:34;85373.24;;;26.20;34.10
55486;BME280;71262;-25.924;28.194;2024-03-02T05:37:00;85369.42;;;26.23;34.08
55486;BME280;71262;-25.924;28.194;2024-03-02T05:39:25;85377.25;;;25.78;34.04
55486;BME280;71262;-25.924;28.194;2024-03-02T05:41:51;85376.42;;;26.04;34.01
55486;BME280;71262;-25.924;28.194;2024-03-02T05:44:17;85378.81;;;26.36;33.97
55486;BME280;71262;-25.924;28.194;2024-03-02T05:46:42;85380.02;;;25.90;33.95
55486;BME280;71262;-25.924;28.194;2024-03-02T05:49:08;85383.56;;;25.94;33.93
55486;BME280;71262;-25.924;28.194;2024-03-02T05:51:34;85382.29;;;25.96;33.92
55486;BME280;71262;-25.924;28.194;2024-03-02T05:54:00;85384.77;;;26.00;33.89
55486;BME280;71262;-25.924;28.194;2024-03-02T05:56:25;85385.91;;;26.04;33.89
55486;BME280;71262;-25.924;28.194;2024-03-02T05:58:51;85388.24;;;26.31;33.84
55486;BME280;71262;-25.924;28.194;2024-03-02T06:01:17;85395.88;;;26.13;33.84
55486;BME280;71262;-25.924;28.194;2024-03-02T06:03:42;85400.81;;;26.16;33.81
55486;BME280;71262;-25.924;28.194;2024-03-02T06:06:08;85403.33;;;26.21;33.81
55486;BME280;71262;-25.924;28.194;2024-03-02T06:08:34;85404.12;;;26.26;33.78
55486;BME280;71262;-25.924;28.194;2024-03-02T06:10:59;85404.36;;;26.09;33.76
55486;BME280;71262;-25.924;28.194;2024-03-02T06:13:25;85407.11;;;26.35;33.75
55486;BME280;71262;-25.924;28.194;2024-03-02T06:15:51;85409.15;;;25.91;33.73
55486;BME280;71262;-25.924;28.194;2024-03-02T06:18:16;85407.67;;;26.45;33.69
55486;BME280;71262;-25.924;28.194;2024-03-02T06:20:42;85414.30;;;26.49;33.66
55486;BME280;71262;-25.924;28.194;2024-03-02T06:23:08;85409.97;;;26.31;33.65
55486;BME280;71262;-25.924;28.194;2024-03-02T06:25:34;85408.16;;;26.35;33.62
55486;BME280;71262;-25.924;28.194;2024-03-02T06:27:59;85407.83;;;26.39;33.61
55486;BME280;71262;-25.924;28.194;2024-03-02T06:30:25;85410.38;;;26.65;33.59
55486;BME280;71262;-25.924;28.194;2024-03-02T06:32:51;85407.02;;;26.48;33.60
55486;BME280;71262;-25.924;28.194;2024-03-02T06:35:16;85407.91;;;26.53;33.58
55486;BME280;71262;-25.924;28.194;2024-03-02T06:37:42;85413.93;;;26.59;33.58
55486;BME280;71262;-25.924;28.194;2024-03-02T06:40:08;85419.50;;;26.63;33.61
55486;BME280;71262;-25.924;28.194;2024-03-02T06:42:33;85416.56;;;26.67;33.52
55486;BME280;71262;-25.924;28.194;2024-03-02T06:44:59;85414.35;;;26.94;33.52
55486;BME280;71262;-25.924;28.194;2024-03-02T06:47:25;85413.29;;;26.50;33.46
55486;BME280;71262;-25.924;28.194;2024-03-02T06:49:50;85417.76;;;26.80;33.47
55486;BME280;71262;-25.924;28.194;2024-03-02T06:52:16;85416.62;;;26.86;33.43
55486;BME280;71262;-25.924;28.194;2024-03-02T06:54:42;85413.98;;;26.91;33.42
55486;BME280;71262;-25.924;28.194;2024-03-02T06:57:08;85410.86;;;26.67;33.41
55486;BME280;71262;-25.924;28.194;2024-03-02T06:59:33;85415.19;;;26.69;33.40
55486;BME280;71262;-25.924;28.194;2024-03-02T07:01:59;85408.95;;;26.74;33.47
55486;BME280;71262;-25.924;28.194;2024-03-02T07:04:25;85407.04;;;26.77;33.38
55486;BME280;71262;-25.924;28.194;2024-03-02T07:06:50;85407.27;;;27.09;33.36
55486;BME280;71262;-25.924;28.194;2024-03-02T07:09:16;85411.19;;;26.86;33.35
55486;BME280;71262;-25.924;28.194;2024-03-02T07:11:42;85411.23;;;26.92;33.27
55486;BME280;71262;-25.924;28.194;2024-03-02T07:14:07;85410.85;;;26.98;33.35
55486;BME280;71262;-25.924;28.194;2024-03-02T07:16:33;85409.82;;;27.31;33.23
55486;BME280;71262;-25.924;28.194;2024-03-02T07:18:59;85411.74;;;27.07;33.28
55486;BME280;71262;-25.924;28.194;2024-03-02T07:21:24;85413.96;;;27.11;33.19
55486;BME280;71262;-25.924;28.194;2024-03-02T07:23:50;85411.52;;;27.17;33.27
55486;BME280;71262;-25.924;28.194;2024-03-02T07:26:16;85409.43;;;27.25;33.17
55486;BME280;71262;-25.924;28.194;2024-03-02T07:28:42;85412.07;;;27.26;33.24
55486;BME280;71262;-25.924;28.194;2024-03-02T07:31:07;85407.92;;;27.27;33.19
55486;BME280;71262;-25.924;28.194;2024-03-02T07:33:33;85406.88;;;27.31;33.22
55486;BME280;71262;-25.924;28.194;2024-03-02T07:36:00;85407.75;;;27.32;33.19
55486;BME280;71262;-25.924;28.194;2024-03-02T07:38:24;85408.97;;;27.38;33.15
55486;BME280;71262;-25.924;28.194;2024-03-02T07:40:50;85409.25;;;27.21;33.11
55486;BME280;71262;-25.924;28.194;2024-03-02T07:43:16;85408.44;;;27.25;33.11
55486;BME280;71262;-25.924;28.194;2024-03-02T07:45:42;85404.38;;;27.51;33.09
55486;BME280;71262;-25.924;28.194;2024-03-02T07:48:07;85404.80;;;27.58;33.08
55486;BME280;71262;-25.924;28.194;2024-03-02T07:50:33;85404.44;;;27.35;33.10
55486;BME280;71262;-25.924;28.194;2024-03-02T07:52:58;85403.00;;;27.56;33.14
55486;BME280;71262;-25.924;28.194;2024-03-02T07:55:24;85404.58;;;27.37;33.05
55486;BME280;71262;-25.924;28.194;2024-03-02T07:57:50;85407.47;;;27.18;33.15
55486;BME280;71262;-25.924;28.194;2024-03-02T08:00:16;85407.35;;;27.62;33.14
55486;BME280;71262;-25.924;28.194;2024-03-02T08:02:41;85406.01;;;27.43;33.14
55486;BME280;71262;-25.924;28.194;2024-03-02T08:05:07;85398.84;;;27.67;33.12
55486;BME280;71262;-25.924;28.194;2024-03-02T08:07:33;85400.84;;;27.47;33.11
55486;BME280;71262;-25.924;28.194;2024-03-02T08:09:58;85396.59;;;27.27;33.10
55486;BME280;71262;-25.924;28.194;2024-03-02T08:12:24;85396.70;;;27.50;33.13
55486;BME280;71262;-25.924;28.194;2024-03-02T08:14:50;85390.64;;;27.52;33.12
55486;BME280;71262;-25.924;28.194;2024-03-02T08:17:16;85391.80;;;27.34;33.07
55486;BME280;71262;-25.924;28.194;2024-03-02T08:19:41;85392.05;;;27.34;33.13
55486;BME280;71262;-25.924;28.194;2024-03-02T08:22:11;85395.49;;;27.70;32.74
55486;BME280;71262;-25.924;28.194;2024-03-02T08:24:33;85396.00;;;27.68;32.79
55486;BME280;71262;-25.924;28.194;2024-03-02T08:26:59;85390.15;;;27.61;32.86
55486;BME280;71262;-25.924;28.194;2024-03-02T08:29:24;85391.78;;;27.61;32.88
55486;BME280;71262;-25.924;28.194;2024-03-02T08:31:49;85394.50;;;27.62;32.85
55486;BME280;71262;-25.924;28.194;2024-03-02T08:34:15;85395.84;;;27.64;32.89
55486;BME280;71262;-25.924;28.194;2024-03-02T08:36:41;85391.18;;;27.64;32.89
55486;BME280;71262;-25.924;28.194;2024-03-02T08:39:07;85389.10;;;27.65;32.89
55486;BME280;71262;-25.924;28.194;2024-03-02T08:41:32;85389.41;;;27.66;32.80
55486;BME280;71262;-25.924;28.194;2024-03-02T08:43:58;85387.48;;;27.68;32.84
55486;BME280;71262;-25.924;28.194;2024-03-02T08:46:23;85381.06;;;27.69;32.87
55486;BME280;71262;-25.924;28.194;2024-03-02T08:48:49;85379.65;;;27.71;32.81
55486;BME280;71262;-25.924;28.194;2024-03-02T08:51:15;85378.34;;;28.16;32.85
55486;BME280;71262;-25.924;28.194;2024-03-02T08:53:41;85368.06;;;28.18;32.89
55486;BME280;71262;-25.924;28.194;2024-03-02T08:56:07;85371.64;;;28.19;32.81
55486;BME280;71262;-25.924;28.194;2024-03-02T08:58:32;85376.87;;;27.77;32.79
55486;BME280;71262;-25.924;28.194;2024-03-02T09:00:58;85371.79;;;27.79;32.75
55486;BME280;71262;-25.924;28.194;2024-03-02T09:03:23;85373.54;;;28.24;32.74
55486;BME280;71262;-25.924;28.194;2024-03-02T09:05:49;85373.06;;;27.82;32.76
55486;BME280;71262;-25.924;28.194;2024-03-02T09:08:14;85372.94;;;28.04;32.87
55486;BME280;71262;-25.924;28.194;2024-03-02T09:10:40;85372.58;;;27.83;32.81
55486;BME280;71262;-25.924;28.194;2024-03-02T09:13:06;85367.99;;;28.06;32.76
55486;BME280;71262;-25.924;28.194;2024-03-02T09:15:31;85367.96;;;27.79;32.77
55486;BME280;71262;-25.924;28.194;2024-03-02T09:17:57;85356.01;;;27.77;32.81
55486;BME280;71262;-25.924;28.194;2024-03-02T09:20:23;85353.64;;;28.17;32.90
55486;BME280;71262;-25.924;28.194;2024-03-02T09:22:48;85350.99;;;27.93;32.84
55486;BME280;71262;-25.924;28.194;2024-03-02T09:25:15;85349.64;;;27.90;32.99
55486;BME280;71262;-25.924;28.194;2024-03-02T09:27:40;85354.13;;;27.90;32.86
55486;BME280;71262;-25.924;28.194;2024-03-02T09:30:10;85348.67;;;27.68;32.90
55486;BME280;71262;-25.924;28.194;2024-03-02T09:32:31;85345.43;;;27.90;32.82
55486;BME280;71262;-25.924;28.194;2024-03-02T09:34:57;85342.13;;;27.91;32.87
55486;BME280;71262;-25.924;28.194;2024-03-02T09:37:23;85332.66;;;27.91;32.88
55486;BME280;71262;-25.924;28.194;2024-03-02T09:39:48;85326.46;;;27.69;32.93
55486;BME280;71262;-25.924;28.194;2024-03-02T09:42:14;85329.32;;;27.68;32.89
55486;BME280;71262;-25.924;28.194;2024-03-02T09:44:40;85326.92;;;28.11;32.97
55486;BME280;71262;-25.924;28.194;2024-03-02T09:47:07;85323.40;;;28.12;32.95
55486;BME280;71262;-25.924;28.194;2024-03-02T09:49:31;85315.82;;;27.90;32.94
55486;BME280;71262;-25.924;28.194;2024-03-02T09:51:57;85318.43;;;28.11;32.92
55486;BME280;71262;-25.924;28.194;2024-03-02T09:54:23;85311.02;;;28.10;32.95
55486;BME280;71262;-25.924;28.194;2024-03-02T09:56:48;85306.87;;;27.87;32.95
55486;BME280;71262;-25.924;28.194;2024-03-02T09:59:14;85301.50;;;27.63;32.95
55486;BME280;71262;-25.924;28.194;2024-03-02T10:01:40;85304.27;;;28.06;32.97
55486;BME280;71262;-25.924;28.194;2024-03-02T10:04:06;85298.77;;;28.05;33.04
55486;BME280;71262;-25.924;28.194;2024-03-02T10:06:31;85294.35;;;28.04;33.04
55486;BME280;71262;-25.924;28.194;2024-03-02T10:08:57;85292.83;;;28.03;32.99
55486;BME280;71262;-25.924;28.194;2024-03-02T10:11:28;85290.13;;;28.00;33.05
55486;BME280;71262;-25.924;28.194;2024-03-02T10:13:48;85291.23;;;27.99;33.01
55486;BME280;71262;-25.924;28.194;2024-03-02T10:16:14;85284.75;;;27.98;33.05
55486;BME280;71262;-25.924;28.194;2024-03-02T10:18:39;85284.61;;;27.96;33.07
55486;BME280;71262;-25.924;28.194;2024-03-02T10:21:13;85283.82;;;27.94;33.08
55486;BME280;71262;-25.924;28.194;2024-03-02T10:23:31;85282.77;;;27.91;33.17
55486;BME280;71262;-25.924;28.194;2024-03-02T10:25:56;85276.01;;;27.90;33.12
55486;BME280;71262;-25.924;28.194;2024-03-02T10:28:22;85278.75;;;27.87;33.13
55486;BME280;71262;-25.924;28.194;2024-03-02T10:30:49;85276.88;;;27.64;33.13
55486;BME280;71262;-25.924;28.194;2024-03-02T10:33:14;85271.32;;;27.84;33.17
55486;BME280;71262;-25.924;28.194;2024-03-02T10:35:40;85270.39;;;27.83;33.16
55486;BME280;71262;-25.924;28.194;2024-03-02T10:38:05;85267.14;;;27.60;33.14
55486;BME280;71262;-25.924;28.194;2024-03-02T10:40:31;85265.78;;;28.07;33.18
55486;BME280;71262;-25.924;28.194;2024-03-02T10:42:57;85257.90;;;28.07;33.17
55486;BME280;71262;-25.924;28.194;2024-03-02T10:45:22;85255.23;;;27.80;33.13
55486;BME280;71262;-25.924;28.194;2024-03-02T10:47:48;85251.01;;;27.78;33.15
55486;BME280;71262;-25.924;28.194;2024-03-02T10:50:14;85244.69;;;27.76;33.17
55486;BME280;71262;-25.924;28.194;2024-03-02T10:52:39;85239.66;;;27.74;33.19
55486;BME280;71262;-25.924;28.194;2024-03-02T10:55:06;85237.80;;;27.73;33.21
55486;BME280;71262;-25.924;28.194;2024-03-02T10:57:38;85236.17;;;27.71;33.20
55486;BME280;71262;-25.924;28.194;2024-03-02T10:59:58;85231.42;;;27.70;33.18
55486;BME280;71262;-25.924;28.194;2024-03-02T11:02:22;85225.81;;;27.50;33.20
55486;BME280;71262;-25.924;28.194;2024-03-02T11:04:49;85223.06;;;27.68;33.20
55486;BME280;71262;-25.924;28.194;2024-03-02T11:07:14;85218.93;;;27.66;33.22
55486;BME280;71262;-25.924;28.194;2024-03-02T11:09:42;85216.37;;;27.64;33.25
55486;BME280;71262;-25.924;28.194;2024-03-02T11:12:12;85213.37;;;27.63;33.23
55486;BME280;71262;-25.924;28.194;2024-03-02T11:14:32;85214.87;;;27.89;33.25
55486;BME280;71262;-25.924;28.194;2024-03-02T11:16:56;85209.67;;;27.61;33.24
55486;BME280;71262;-25.924;28.194;2024-03-02T11:19:22;85201.68;;;27.60;33.27
55486;BME280;71262;-25.924;28.194;2024-03-02T11:21:48;85199.79;;;27.59;33.28
55486;BME280;71262;-25.924;28.194;2024-03-02T11:26:39;85190.22;;;27.83;33.29
55486;BME280;71262;-25.924;28.194;2024-03-02T11:29:05;85188.62;;;27.62;33.22
55486;BME280;71262;-25.924;28.194;2024-03-02T11:33:56;85176.59;;;27.68;33.15
55486;BME280;71262;-25.924;28.194;2024-03-02T11:36:22;85179.21;;;27.70;33.11
55486;BME280;71262;-25.924;28.194;2024-03-02T11:38:48;85174.25;;;27.97;33.13
55486;BME280;71262;-25.924;28.194;2024-03-02T11:41:13;85168.10;;;27.69;33.12
55486;BME280;71262;-25.924;28.194;2024-03-02T11:43:40;85168.43;;;27.68;33.12
55486;BME280;71262;-25.924;28.194;2024-03-02T11:46:06;85166.50;;;27.67;33.12
55486;BME280;71262;-25.924;28.194;2024-03-02T11:48:31;85165.76;;;27.66;33.16
55486;BME280;71262;-25.924;28.194;2024-03-02T11:50:58;85160.01;;;27.92;33.13
55486;BME280;71262;-25.924;28.194;2024-03-02T11:53:23;85153.85;;;27.65;33.14
55486;BME280;71262;-25.924;28.194;2024-03-02T11:55:48;85147.52;;;27.86;33.19
55486;BME280;71262;-25.924;28.194;2024-03-02T11:58:14;85144.12;;;27.52;33.28
55486;BME280;71262;-25.924;28.194;2024-03-02T12:00:39;85143.47;;;27.47;33.31
55486;BME280;71262;-25.924;28.194;2024-03-02T12:03:06;85140.47;;;27.45;33.34
55486;BME280;71262;-25.924;28.194;2024-03-02T12:05:31;85138.82;;;27.92;33.35
55486;BME280;71262;-25.924;28.194;2024-03-02T12:07:57;85132.22;;;27.43;33.38
55486;BME280;71262;-25.924;28.194;2024-03-02T12:10:22;85130.40;;;27.42;33.36
55486;BME280;71262;-25.924;28.194;2024-03-02T12:12:48;85127.24;;;27.41;33.38
55486;BME280;71262;-25.924;28.194;2024-03-02T12:15:14;85115.62;;;27.40;33.38
55486;BME280;71262;-25.924;28.194;2024-03-02T12:17:40;85117.21;;;27.89;33.39
55486;BME280;71262;-25.924;28.194;2024-03-02T12:20:06;85116.32;;;27.66;33.40
55486;BME280;71262;-25.924;28.194;2024-03-02T12:22:30;85117.67;;;27.39;33.38
55486;BME280;71262;-25.924;28.194;2024-03-02T12:24:56;85112.03;;;27.66;33.37
55486;BME280;71262;-25.924;28.194;2024-03-02T12:27:22;85108.36;;;27.88;33.36
55486;BME280;71262;-25.924;28.194;2024-03-02T12:29:48;85103.42;;;27.66;33.36
55486;BME280;71262;-25.924;28.194;2024-03-02T12:32:13;85104.33;;;27.66;33.38
55486;BME280;71262;-25.924;28.194;2024-03-02T12:34:39;85101.26;;;27.66;33.36
55486;BME280;71262;-25.924;28.194;2024-03-02T12:37:06;85091.76;;;27.66;33.35
55486;BME280;71262;-25.924;28.194;2024-03-02T12:39:30;85083.23;;;27.39;33.34